METAR Data
IDs: Format: Raw Decoded Include TAF

Data at: 0639 UTC 07 Dec 2022

KHRI 070553Z AUTO 18003KT 1/4SM FZFG VV002 M04/M06 A3018 RMK AO2 SLP226 I6001 T10441056 11033 21094 51013
KHRI 070453Z AUTO 00000KT 1/4SM FZFG VV002 M03/M05 A3017 RMK AO2 SLP224 T10331050
KHRI 070353Z AUTO 00000KT 1/4SM FZFG VV002 M06/M07 A3015 RMK AO2 SLP218 I1000 T10561072
KHRI 070315Z AUTO 21004KT 1/4SM FZFG VV002 M08/M09 A3014 RMK AO2 T10781094
KHRI 070306Z AUTO 19004KT 1/2SM FZFG VV002 M08/M10 A3014 RMK AO2 T10831100
KHRI 070253Z AUTO 20003KT 1/4SM FZFG VV002 M09/M11 A3014 RMK AO2 SLP215 I3001 T10941111 53011
KHRI 070219Z AUTO 00000KT 1/4SM FZFG VV002 M09/M11 A3013 RMK AO2 T10891106
KHRI 070153Z AUTO 00000KT 1/4SM FZFG CLR M09/M09 A3012 RMK AO2 SLP210 I1001 T10891089
KHRI 070137Z AUTO 00000KT 1/4SM FZFG CLR M07/M09 A3012 RMK AO2 I1000 T10721089
KHRI 070128Z AUTO 00000KT 1/2SM FZFG VV002 M08/M09 A3012 RMK AO2 I1000 T10781089
KHRI 070105Z AUTO 00000KT 1/4SM FZFG CLR M07/M08 A3011 RMK AO2 T10671078
KHRI 070059Z AUTO 00000KT 1 1/2SM BR CLR M07/M07 A3011 RMK AO2 VIS 1/2V4 T10721072
KHRI 070053Z AUTO 00000KT 4SM BR CLR M05/M07 A3011 RMK AO2 SLP205 T10501067
KHRI 062353Z AUTO 05003KT 9SM CLR M03/M06 A3011 RMK AO2 SLP201 T10331056 11011 21039 53003
KHRI 062253Z AUTO 03005KT 10SM CLR M02/M04 A3010 RMK AO2 SLP198 T10171044
KHRI 062153Z AUTO 03004KT 9SM CLR M02/M05 A3009 RMK AO2 SLP197 T10221050
KHRI 062053Z AUTO 08003KT 9SM CLR M02/M04 A3010 RMK AO2 SLP198 T10221044 58004
KHRI 062012Z AUTO 00000KT 10SM SCT004 M03/M05 A3010 RMK AO2 T10281050
KHRI 061953Z AUTO 00000KT 9SM OVC003 M03/M05 A3010 RMK AO2 SLP201 T10281050
KHRI 061853Z AUTO 00000KT 5SM BR OVC004 M03/M04 A3011 RMK AO2 SLP204 T10331039
KHRI 061838Z AUTO 30003KT 10SM OVC004 M03/M04 A3011 RMK AO2 T10331044
KHRI 061819Z AUTO 29003KT 8SM OVC005 M03/M04 A3011 RMK AO2 CIG 002V008 T10331044
KHRI 061812Z AUTO 00000KT 2 1/2SM BR OVC005 M03/M05 A3011 RMK AO2 CIG 002V008 T10331050
KHRI 061753Z AUTO 00000KT 10SM OVC007 M04/M06 A3011 RMK AO2 SLP203 60000 I6001 T10391056 11039 21067 53004
KHRI 061723Z AUTO 00000KT 10SM OVC006 M05/M07 A3011 RMK AO2 CIG 003V008 T10501067
KHRI 061713Z AUTO 00000KT 10SM OVC004 M06/M07 A3011 RMK AO2 T10561067
KHRI 061705Z AUTO 00000KT 2SM BR OVC004 M06/M07 A3011 RMK AO2 T10611072
KHRI 061653Z AUTO 19003KT 1/2SM FZFG VV003 M06/M07 A3011 RMK AO2 SNB28E37 SLP202 P0000 I1001 T10611067
KHRI 061641Z AUTO 17005KT 1/4SM FZFG VV002 M06/M07 A3011 RMK AO2 SNB28E37 P0000 I1001 T10611067
KHRI 061631Z AUTO 17006KT M1/4SM -SN FZFG VV002 M06/M07 A3010 RMK AO2 SNB28 P0000 I1001 T10611067
KHRI 061553Z AUTO 16004KT 1/4SM FZFG VV002 M05/M06 A3010 RMK AO2 SLP198 I1000 T10501061
KHRI 061536Z AUTO 16003KT 1/2SM FZFG VV003 M06/M07 A3010 RMK AO2 T10561067
KHRI 061527Z AUTO 19003KT 1SM BR OVC002 M06/M06 A3010 RMK AO2 T10561061
KHRI 061506Z AUTO 17003KT 2SM BR OVC002 M06/M06 A3010 RMK AO2 T10561061
KHRI 061453Z AUTO 18004KT 1 3/4SM BR OVC002 M06/M06 A3010 RMK AO2 SLP199 T10561061 53002
KHRI 061437Z AUTO 18003KT 1 3/4SM BR OVC002 M05/M06 A3009 RMK AO2 T10501061
KHRI 061403Z AUTO 00000KT 7SM OVC003 M05/M06 A3009 RMK AO2 T10501061
KHRI 061353Z AUTO 19003KT 7SM OVC005 M05/M06 A3009 RMK AO2 CIG 003V006 SLP195 T10501061
KHRI 061253Z AUTO 20005KT 10SM OVC006 M04/M06 A3009 RMK AO2 SLP195 T10441061
KHRI 061153Z AUTO 00000KT 10SM OVC006 M04/M06 A3009 RMK AO2 SLP197 T10391056 11028 21044 56005
KHRI 061053Z AUTO 00000KT 10SM OVC005 M04/M06 A3010 RMK AO2 SLP200 T10391056
KHRI 061018Z AUTO 00000KT 9SM OVC005 M04/M06 A3011 RMK AO2 T10441056
KHRI 060953Z AUTO 8SM OVC004 M04/M06 A3010 RMK AO2 SLP198 T10441056
KHRI 060853Z AUTO 24003KT 6SM BR OVC003 M04/M05 A3011 RMK AO2 SLP202 T10441050 50003
KHRI 060753Z AUTO 27004KT 6SM BR OVC003 M04/M05 A3012 RMK AO2 SLP205 T10391050 410111083
KHRI 060653Z AUTO 25006KT 6SM BR OVC004 M03/M04 A3010 RMK AO2 SLP199 T10331044
KHRI 060553Z AUTO 27004KT 4SM BR OVC003 M03/M04 A3010 RMK AO2 SLP199 I6001 T10281039 11017 21028 50006
KHRI 060453Z AUTO 30003KT 4SM BR OVC004 M03/M03 A3010 RMK AO2 SLP200 T10281033
KHRI 060420Z AUTO 25004KT 3SM BR OVC003 M02/M03 A3009 RMK AO2 T10221033
KHRI 060353Z AUTO 21004KT 2 1/2SM BR OVC004 M02/M03 A3009 RMK AO2 SLP195 I1001 T10221033
KHRI 060332Z AUTO 22003KT 2 1/2SM BR OVC004 M02/M03 A3009 RMK AO2 I1000 T10221033
KHRI 060322Z AUTO 20003KT 3SM BR OVC004 M02/M03 A3009 RMK AO2 CIG 002V006 I1000 T10221033
KHRI 060308Z AUTO 21003KT 2SM BR OVC004 M02/M03 A3009 RMK AO2 CIG 002V006 T10221033
KHRI 060301Z AUTO 00000KT 2 1/2SM BR OVC006 M02/M03 A3008 RMK AO2 CIG 002V006 T10221033
KHRI 060253Z AUTO 00000KT 3SM BR OVC006 M02/M03 A3008 RMK AO2 SLP194 T10221033 53000
KHRI 060237Z AUTO 00000KT 4SM BR OVC006 M02/M04 A3008 RMK AO2 T10221039
KHRI 060224Z AUTO 00000KT 2 1/2SM BR OVC006 M02/M03 A3008 RMK AO2 T10221033
KHRI 060153Z AUTO 00000KT 4SM BR OVC007 M02/M03 A3007 RMK AO2 SLP192 T10221033
KHRI 060053Z AUTO 27004KT 4SM BR OVC005 M02/M03 A3007 RMK AO2 SLP188 T10221033
KHRI 052353Z AUTO 10003KT 6SM BR OVC007 M02/M03 A3008 RMK AO2 SLP193 T10171033 11011 21033 53000
KHRI 052253Z AUTO 00000KT 7SM OVC008 M02/M04 A3007 RMK AO2 SLP188 T10171039
KHRI 052153Z AUTO 09003KT 7SM OVC007 M02/M03 A3007 RMK AO2 SLP189 T10171033
KHRI 052053Z AUTO 00000KT 6SM BR OVC005 M02/M03 A3008 RMK AO2 SLP192 T10171033 58013
KHRI 052033Z AUTO 00000KT 5SM BR OVC006 M01/M03 A3008 RMK AO2 CIG 004V010 T10111033
KHRI 051953Z AUTO 23003KT 5SM BR OVC004 M02/M03 A3010 RMK AO2 SLP199 T10171033
KHRI 051853Z AUTO 00000KT 4SM BR OVC003 M02/M04 A3011 RMK AO2 SLP205 T10221039